sensor_id;sensor_type;location;lat;lon;timestamp;temperature;humidity
42145;DHT22;27813;43.516;11.890;2022-07-29T03:24:53;18.90;81.00
42145;DHT22;27813;43.516;11.890;2022-07-29T03:29:18;18.80;81.10
42145;DHT22;27813;43.516;11.890;2022-07-29T03:33:27;18.80;81.20
42145;DHT22;27813;43.516;11.890;2022-07-29T03:37:33;18.80;81.50
42145;DHT22;27813;43.516;11.890;2022-07-29T03:41:38;18.70;81.40
42145;DHT22;27813;43.516;11.890;2022-07-29T03:45:49;18.70;81.40
42145;DHT22;27813;43.516;11.890;2022-07-29T03:50:00;18.70;81.60
42145;DHT22;27813;43.516;11.890;2022-07-29T03:54:06;18.60;81.60
42145;DHT22;27813;43.516;11.890;2022-07-29T03:58:13;18.50;81.70
42145;DHT22;27813;43.516;11.890;2022-07-29T04:02:18;18.50;81.90
42145;DHT22;27813;43.516;11.890;2022-07-29T04:06:27;18.50;82.00
42145;DHT22;27813;43.516;11.890;2022-07-29T04:10:32;18.60;81.90
42145;DHT22;27813;43.516;11.890;2022-07-29T04:14:38;18.60;81.90
42145;DHT22;27813;43.516;11.890;2022-07-29T04:18:42;18.60;81.80
42145;DHT22;27813;43.516;11.890;2022-07-29T04:22:48;18.60;81.70
42145;DHT22;27813;43.516;11.890;2022-07-29T04:26:52;18.80;81.60
42145;DHT22;27813;43.516;11.890;2022-07-29T04:30:56;18.80;81.40
42145;DHT22;27813;43.516;11.890;2022-07-29T04:35:00;18.90;81.30
42145;DHT22;27813;43.516;11.890;2022-07-29T04:39:05;19.00;81.10
42145;DHT22;27813;43.516;11.890;2022-07-29T04:43:10;19.10;80.90
42145;DHT22;27813;43.516;11.890;2022-07-29T04:47:18;19.50;81.00
42145;DHT22;27813;43.516;11.890;2022-07-29T04:51:22;20.60;78.10
42145;DHT22;27813;43.516;11.890;2022-07-29T04:55:26;21.60;75.50
42145;DHT22;27813;43.516;11.890;2022-07-29T04:59:30;22.50;73.10
42145;DHT22;27813;43.516;11.890;2022-07-29T05:03:35;23.20;71.20
42145;DHT22;27813;43.516;11.890;2022-07-29T05:07:39;23.80;70.00
42145;DHT22;27813;43.516;11.890;2022-07-29T05:11:43;24.40;68.90
42145;DHT22;27813;43.516;11.890;2022-07-29T05:15:48;25.00;67.60
42145;DHT22;27813;43.516;11.890;2022-07-29T05:19:52;25.70;66.30
42145;DHT22;27813;43.516;11.890;2022-07-29T05:23:56;26.40;64.80
42145;DHT22;27813;43.516;11.890;2022-07-29T05:28:00;27.00;63.30
42145;DHT22;27813;43.516;11.890;2022-07-29T05:32:05;27.40;62.20
42145;DHT22;27813;43.516;11.890;2022-07-29T05:36:10;27.70;61.80
42145;DHT22;27813;43.516;11.890;2022-07-29T05:40:15;28.30;60.80
42145;DHT22;27813;43.516;11.890;2022-07-29T05:44:19;28.80;59.60
42145;DHT22;27813;43.516;11.890;2022-07-29T05:48:27;29.50;58.50
42145;DHT22;27813;43.516;11.890;2022-07-29T05:52:31;30.00;57.60
42145;DHT22;27813;43.516;11.890;2022-07-29T05:56:36;30.60;56.30
42145;DHT22;27813;43.516;11.890;2022-07-29T06:00:43;31.20;55.00
42145;DHT22;27813;43.516;11.890;2022-07-29T06:04:47;31.80;54.00
42145;DHT22;27813;43.516;11.890;2022-07-29T06:08:52;32.10;53.20
42145;DHT22;27813;43.516;11.890;2022-07-29T06:12:56;32.50;52.40
42145;DHT22;27813;43.516;11.890;2022-07-29T06:17:03;32.90;51.80
42145;DHT22;27813;43.516;11.890;2022-07-29T06:21:14;33.40;50.70
42145;DHT22;27813;43.516;11.890;2022-07-29T06:25:18;33.90;49.90
42145;DHT22;27813;43.516;11.890;2022-07-29T06:29:22;34.40;49.00
42145;DHT22;27813;43.516;11.890;2022-07-29T06:33:27;34.90;48.00
42145;DHT22;27813;43.516;11.890;2022-07-29T06:37:32;35.30;47.20
42145;DHT22;27813;43.516;11.890;2022-07-29T06:41:40;35.50;46.90
42145;DHT22;27813;43.516;11.890;2022-07-29T06:45:48;35.90;46.20
42145;DHT22;27813;43.516;11.890;2022-07-29T06:49:52;36.20;45.70
42145;DHT22;27813;43.516;11.890;2022-07-29T06:53:58;36.50;45.00
42145;DHT22;27813;43.516;11.890;2022-07-29T06:58:05;36.80;44.20
42145;DHT22;27813;43.516;11.890;2022-07-29T07:02:13;36.90;43.60
42145;DHT22;27813;43.516;11.890;2022-07-29T07:06:17;36.20;44.30
42145;DHT22;27813;43.516;11.890;2022-07-29T07:10:21;34.60;47.00
42145;DHT22;27813;43.516;11.890;2022-07-29T07:14:27;33.30;49.60
42145;DHT22;27813;43.516;11.890;2022-07-29T07:18:33;32.40;51.60
42145;DHT22;27813;43.516;11.890;2022-07-29T07:22:38;31.60;52.90
42145;DHT22;27813;43.516;11.890;2022-07-29T07:26:42;31.10;53.80
42145;DHT22;27813;43.516;11.890;2022-07-29T07:30:48;30.70;54.50
42145;DHT22;27813;43.516;11.890;2022-07-29T07:34:52;30.50;55.00
42145;DHT22;27813;43.516;11.890;2022-07-29T07:38:58;30.40;55.20
42145;DHT22;27813;43.516;11.890;2022-07-29T07:43:03;30.30;55.40
42145;DHT22;27813;43.516;11.890;2022-07-29T07:47:08;30.30;55.50
42145;DHT22;27813;43.516;11.890;2022-07-29T07:51:15;30.30;55.50
42145;DHT22;27813;43.516;11.890;2022-07-29T07:55:19;30.30;55.40
42145;DHT22;27813;43.516;11.890;2022-07-29T07:59:24;30.30;55.30
42145;DHT22;27813;43.516;11.890;2022-07-29T08:03:28;30.30;55.20
42145;DHT22;27813;43.516;11.890;2022-07-29T08:07:33;30.30;55.20
42145;DHT22;27813;43.516;11.890;2022-07-29T08:11:37;30.20;55.10
42145;DHT22;27813;43.516;11.890;2022-07-29T08:15:55;30.20;55.10
42145;DHT22;27813;43.516;11.890;2022-07-29T08:20:15;30.10;55.20
42145;DHT22;27813;43.516;11.890;2022-07-29T08:24:20;30.00;55.20
42145;DHT22;27813;43.516;11.890;2022-07-29T08:28:46;30.00;55.20
42145;DHT22;27813;43.516;11.890;2022-07-29T08:32:54;30.10;55.10
42145;DHT22;27813;43.516;11.890;2022-07-29T08:36:59;30.10;55.00
42145;DHT22;27813;43.516;11.890;2022-07-29T08:41:04;30.10;54.80
42145;DHT22;27813;43.516;11.890;2022-07-29T08:45:10;30.10;54.80
42145;DHT22;27813;43.516;11.890;2022-07-29T08:49:15;30.10;54.90
42145;DHT22;27813;43.516;11.890;2022-07-29T08:53:21;30.20;54.80
42145;DHT22;27813;43.516;11.890;2022-07-29T08:57:28;30.20;54.60
42145;DHT22;27813;43.516;11.890;2022-07-29T09:01:37;30.30;54.60
42145;DHT22;27813;43.516;11.890;2022-07-29T09:05:47;30.40;54.50
42145;DHT22;27813;43.516;11.890;2022-07-29T09:09:51;30.50;54.20
42145;DHT22;27813;43.516;11.890;2022-07-29T09:13:58;30.50;54.10
42145;DHT22;27813;43.516;11.890;2022-07-29T09:18:02;30.60;54.00
42145;DHT22;27813;43.516;11.890;2022-07-29T09:22:07;30.70;53.90
42145;DHT22;27813;43.516;11.890;2022-07-29T09:26:13;30.80;53.70
42145;DHT22;27813;43.516;11.890;2022-07-29T09:30:18;31.00;53.70
42145;DHT22;27813;43.516;11.890;2022-07-29T09:34:34;31.30;53.60
42145;DHT22;27813;43.516;11.890;2022-07-29T09:38:38;31.90;53.20
42145;DHT22;27813;43.516;11.890;2022-07-29T09:42:44;32.70;52.20
42145;DHT22;27813;43.516;11.890;2022-07-29T09:47:01;33.90;50.50
42145;DHT22;27813;43.516;11.890;2022-07-29T09:51:19;36.00;46.60
42145;DHT22;27813;43.516;11.890;2022-07-29T09:55:51;37.90;42.80
42145;DHT22;27813;43.516;11.890;2022-07-29T09:59:58;39.20;40.30
42145;DHT22;27813;43.516;11.890;2022-07-29T10:04:03;40.10;38.70
42145;DHT22;27813;43.516;11.890;2022-07-29T10:08:07;40.80;37.30
42145;DHT22;27813;43.516;11.890;2022-07-29T10:12:13;41.40;36.10
42145;DHT22;27813;43.516;11.890;2022-07-29T10:16:18;41.70;35.10
42145;DHT22;27813;43.516;11.890;2022-07-29T10:20:23;42.10;34.50
42145;DHT22;27813;43.516;11.890;2022-07-29T10:24:32;42.40;33.40
42145;DHT22;27813;43.516;11.890;2022-07-29T10:28:37;42.70;32.90
42145;DHT22;27813;43.516;11.890;2022-07-29T10:33:07;43.10;32.20
42145;DHT22;27813;43.516;11.890;2022-07-29T10:37:46;43.30;31.50
42145;DHT22;27813;43.516;11.890;2022-07-29T10:42:06;43.50;31.00
42145;DHT22;27813;43.516;11.890;2022-07-29T10:46:18;43.50;30.70
42145;DHT22;27813;43.516;11.890;2022-07-29T10:50:23;43.70;30.10
42145;DHT22;27813;43.516;11.890;2022-07-29T10:54:56;43.80;29.90
42145;DHT22;27813;43.516;11.890;2022-07-29T11:03:44;44.30;28.80
42145;DHT22;27813;43.516;11.890;2022-07-29T11:17:04;44.50;28.10
42145;DHT22;27813;43.516;11.890;2022-07-29T11:21:35;44.70;27.80
42145;DHT22;27813;43.516;11.890;2022-07-29T11:26:19;44.70;27.60
42145;DHT22;27813;43.516;11.890;2022-07-29T11:30:51;44.60;27.50
42145;DHT22;27813;43.516;11.890;2022-07-29T11:35:14;44.60;27.50
42145;DHT22;27813;43.516;11.890;2022-07-29T11:39:28;44.70;27.20
42145;DHT22;27813;43.516;11.890;2022-07-29T11:43:51;44.60;27.00
42145;DHT22;27813;43.516;11.890;2022-07-29T11:47:57;44.40;27.10
42145;DHT22;27813;43.516;11.890;2022-07-29T11:52:23;44.20;27.40
42145;DHT22;27813;43.516;11.890;2022-07-29T11:56:39;44.20;27.50
42145;DHT22;27813;43.516;11.890;2022-07-29T12:00:47;44.30;27.10
42145;DHT22;27813;43.516;11.890;2022-07-29T12:04:54;44.30;27.10
42145;DHT22;27813;43.516;11.890;2022-07-29T12:08:59;44.30;27.00
42145;DHT22;27813;43.516;11.890;2022-07-29T12:13:05;44.30;27.20
42145;DHT22;27813;43.516;11.890;2022-07-29T12:17:30;44.50;27.00
42145;DHT22;27813;43.516;11.890;2022-07-29T12:21:50;44.40;26.70
42145;DHT22;27813;43.516;11.890;2022-07-29T12:25:59;44.40;27.00
42145;DHT22;27813;43.516;11.890;2022-07-29T12:30:09;44.40;27.10
42145;DHT22;27813;43.516;11.890;2022-07-29T12:34:23;44.10;26.90
42145;DHT22;27813;43.516;11.890;2022-07-29T12:38:36;43.30;27.60
42145;DHT22;27813;43.516;11.890;2022-07-29T12:42:40;43.10;27.60
42145;DHT22;27813;43.516;11.890;2022-07-29T12:47:02;42.80;27.80
42145;DHT22;27813;43.516;11.890;2022-07-29T12:51:07;42.80;27.80
42145;DHT22;27813;43.516;11.890;2022-07-29T12:55:13;43.00;27.70
42145;DHT22;27813;43.516;11.890;2022-07-29T12:59:25;43.20;27.40
42145;DHT22;27813;43.516;11.890;2022-07-29T13:08:14;43.30;26.90
42145;DHT22;27813;43.516;11.890;2022-07-29T13:12:24;43.30;26.70
42145;DHT22;27813;43.516;11.890;2022-07-29T13:16:29;43.20;26.70
42145;DHT22;27813;43.516;11.890;2022-07-29T13:20:33;43.10;26.50
42145;DHT22;27813;43.516;11.890;2022-07-29T13:24:57;42.90;26.50
42145;DHT22;27813;43.516;11.890;2022-07-29T13:29:03;42.60;26.20
42145;DHT22;27813;43.516;11.890;2022-07-29T13:33:09;42.30;26.60
42145;DHT22;27813;43.516;11.890;2022-07-29T13:37:14;41.90;26.70
42145;DHT22;27813;43.516;11.890;2022-07-29T13:41:18;41.50;26.90
42145;DHT22;27813;43.516;11.890;2022-07-29T13:45:24;41.10;27.10
42145;DHT22;27813;43.516;11.890;2022-07-29T13:49:31;40.80;27.30
42145;DHT22;27813;43.516;11.890;2022-07-29T13:53:36;40.50;27.30
42145;DHT22;27813;43.516;11.890;2022-07-29T13:57:40;40.20;27.60
42145;DHT22;27813;43.516;11.890;2022-07-29T14:01:45;40.00;27.70
42145;DHT22;27813;43.516;11.890;2022-07-29T14:05:50;39.70;27.90
42145;DHT22;27813;43.516;11.890;2022-07-29T14:09:54;39.40;28.20
42145;DHT22;27813;43.516;11.890;2022-07-29T14:13:59;39.00;28.70
42145;DHT22;27813;43.516;11.890;2022-07-29T14:18:03;39.00;28.80
42145;DHT22;27813;43.516;11.890;2022-07-29T14:22:08;39.10;28.70
42145;DHT22;27813;43.516;11.890;2022-07-29T14:26:15;39.30;28.60
42145;DHT22;27813;43.516;11.890;2022-07-29T14:30:24;39.50;28.50
42145;DHT22;27813;43.516;11.890;2022-07-29T14:34:29;39.50;28.60
42145;DHT22;27813;43.516;11.890;2022-07-29T14:38:33;39.40;28.70
42145;DHT22;27813;43.516;11.890;2022-07-29T14:42:38;39.30;28.80
42145;DHT22;27813;43.516;11.890;2022-07-29T14:46:43;39.20;28.90
42145;DHT22;27813;43.516;11.890;2022-07-29T14:50:52;38.80;29.20
42145;DHT22;27813;43.516;11.890;2022-07-29T14:55:01;38.30;30.00
42145;DHT22;27813;43.516;11.890;2022-07-29T14:59:06;37.10;33.10
42145;DHT22;27813;43.516;11.890;2022-07-29T15:03:12;34.80;38.70
42145;DHT22;27813;43.516;11.890;2022-07-29T15:07:27;32.10;46.80
42145;DHT22;27813;43.516;11.890;2022-07-29T15:11:38;29.70;52.40
42145;DHT22;27813;43.516;11.890;2022-07-29T15:15:47;28.60;55.40
42145;DHT22;27813;43.516;11.890;2022-07-29T15:19:52;28.30;56.30
42145;DHT22;27813;43.516;11.890;2022-07-29T15:24:02;27.60;58.00
42145;DHT22;27813;43.516;11.890;2022-07-29T15:28:06;26.90;62.00
42145;DHT22;27813;43.516;11.890;2022-07-29T15:32:11;26.60;64.70
42145;DHT22;27813;43.516;11.890;2022-07-29T15:36:16;26.50;65.50
42145;DHT22;27813;43.516;11.890;2022-07-29T15:40:40;26.70;66.40
42145;DHT22;27813;43.516;11.890;2022-07-29T15:44:46;26.80;66.50
42145;DHT22;27813;43.516;11.890;2022-07-29T15:48:50;26.60;67.90
42145;DHT22;27813;43.516;11.890;2022-07-29T15:52:54;26.10;69.70
42145;DHT22;27813;43.516;11.890;2022-07-29T15:56:59;25.70;72.10
42145;DHT22;27813;43.516;11.890;2022-07-29T16:01:05;25.50;73.50
42145;DHT22;27813;43.516;11.890;2022-07-29T16:05:13;24.60;75.30
42145;DHT22;27813;43.516;11.890;2022-07-29T16:09:21;24.10;76.30
42145;DHT22;27813;43.516;11.890;2022-07-29T16:13:25;23.90;77.10
42145;DHT22;27813;43.516;11.890;2022-07-29T16:17:32;23.90;77.40
42145;DHT22;27813;43.516;11.890;2022-07-29T16:21:38;24.20;76.50
42145;DHT22;27813;43.516;11.890;2022-07-29T16:25:43;24.80;75.60
42145;DHT22;27813;43.516;11.890;2022-07-29T16:30:05;25.10;74.00
42145;DHT22;27813;43.516;11.890;2022-07-29T16:34:14;25.50;72.60
42145;DHT22;27813;43.516;11.890;2022-07-29T16:38:20;25.70;71.70
42145;DHT22;27813;43.516;11.890;2022-07-29T16:42:26;26.10;70.80
42145;DHT22;27813;43.516;11.890;2022-07-29T16:46:49;26.60;69.40
42145;DHT22;27813;43.516;11.890;2022-07-29T16:50:58;27.00;68.00
42145;DHT22;27813;43.516;11.890;2022-07-29T16:55:06;27.00;66.90
42145;DHT22;27813;43.516;11.890;2022-07-29T16:59:11;27.20;66.50
42145;DHT22;27813;43.516;11.890;2022-07-29T17:03:16;27.00;67.60
42145;DHT22;27813;43.516;11.890;2022-07-29T17:07:21;26.80;68.70
42145;DHT22;27813;43.516;11.890;2022-07-29T17:11:25;26.60;69.90
42145;DHT22;27813;43.516;11.890;2022-07-29T17:15:49;26.20;71.10
42145;DHT22;27813;43.516;11.890;2022-07-29T17:19:54;25.90;72.00
42145;DHT22;27813;43.516;11.890;2022-07-29T17:23:59;25.90;72.30
42145;DHT22;27813;43.516;11.890;2022-07-29T17:28:05;26.00;72.10
42145;DHT22;27813;43.516;11.890;2022-07-29T17:32:10;26.10;71.60
42145;DHT22;27813;43.516;11.890;2022-07-29T17:36:15;26.10;71.10
42145;DHT22;27813;43.516;11.890;2022-07-29T17:40:31;26.20;70.80
42145;DHT22;27813;43.516;11.890;2022-07-29T17:44:37;26.20;70.60
42145;DHT22;27813;43.516;11.890;2022-07-29T17:48:41;26.20;70.60
42145;DHT22;27813;43.516;11.890;2022-07-29T17:52:45;26.10;70.50
42145;DHT22;27813;43.516;11.890;2022-07-29T17:56:50;26.00;70.70
42145;DHT22;27813;43.516;11.890;2022-07-29T18:00:54;25.90;71.00
42145;DHT22;27813;43.516;11.890;2022-07-29T18:04:58;25.80;71.20
42145;DHT22;27813;43.516;11.890;2022-07-29T18:09:03;25.60;71.40
42145;DHT22;27813;43.516;11.890;2022-07-29T18:13:09;25.50;71.70
42145;DHT22;27813;43.516;11.890;2022-07-29T18:17:16;25.20;72.00
42145;DHT22;27813;43.516;11.890;2022-07-29T18:21:22;25.10;72.40
42145;DHT22;27813;43.516;11.890;2022-07-29T18:25:46;25.00;72.80
42145;DHT22;27813;43.516;11.890;2022-07-29T18:29:54;24.80;73.20
42145;DHT22;27813;43.516;11.890;2022-07-29T18:34:08;24.60;73.70
42145;DHT22;27813;43.516;11.890;2022-07-29T18:38:12;24.40;74.00
42145;DHT22;27813;43.516;11.890;2022-07-29T18:42:17;24.20;74.40
42145;DHT22;27813;43.516;11.890;2022-07-29T18:46:22;24.10;74.80
42145;DHT22;27813;43.516;11.890;2022-07-29T18:50:29;24.00;75.10
42145;DHT22;27813;43.516;11.890;2022-07-29T18:54:37;24.00;75.30
42145;DHT22;27813;43.516;11.890;2022-07-29T18:58:41;23.80;75.50
42145;DHT22;27813;43.516;11.890;2022-07-29T19:02:49;23.70;75.80
42145;DHT22;27813;43.516;11.890;2022-07-29T19:06:56;23.60;75.90
42145;DHT22;27813;43.516;11.890;2022-07-29T19:11:05;23.50;76.30
42145;DHT22;27813;43.516;11.890;2022-07-29T19:15:13;23.30;76.30
42145;DHT22;27813;43.516;11.890;2022-07-29T19:19:23;23.20;76.60
42145;DHT22;27813;43.516;11.890;2022-07-29T19:23:29;23.10;76.80
42145;DHT22;27813;43.516;11.890;2022-07-29T19:27:55;23.10;77.10
42145;DHT22;27813;43.516;11.890;2022-07-29T19:32:00;23.00;77.20
42145;DHT22;27813;43.516;11.890;2022-07-29T19:36:04;23.00;77.30
42145;DHT22;27813;43.516;11.890;2022-07-29T19:40:11;22.90;77.40
42145;DHT22;27813;43.516;11.890;2022-07-29T19:44:15;22.90;77.50
42145;DHT22;27813;43.516;11.890;2022-07-29T19:48:20;22.80;77.60
42145;DHT22;27813;43.516;11.890;2022-07-29T19:52:26;22.80;77.60
42145;DHT22;27813;43.516;11.890;2022-07-29T19:56:31;22.70;77.80
42145;DHT22;27813;43.516;11.890;2022-07-29T20:00:38;22.60;77.80
42145;DHT22;27813;43.516;11.890;2022-07-29T20:04:49;22.50;77.90
42145;DHT22;27813;43.516;11.890;2022-07-29T20:08:56;22.40;78.00
42145;DHT22;27813;43.516;11.890;2022-07-29T20:13:05;22.30;78.30
42145;DHT22;27813;43.516;11.890;2022-07-29T20:17:11;22.20;78.50
42145;DHT22;27813;43.516;11.890;2022-07-29T20:21:15;22.10;78.50
42145;DHT22;27813;43.516;11.890;2022-07-29T20:25:22;22.00;78.60
42145;DHT22;27813;43.516;11.890;2022-07-29T20:29:28;22.00;78.60
42145;DHT22;27813;43.516;11.890;2022-07-29T20:33:33;21.90;78.60
42145;DHT22;27813;43.516;11.890;2022-07-29T20:37:45;21.80;78.80
42145;DHT22;27813;43.516;11.890;2022-07-29T20:42:00;21.70;78.90
42145;DHT22;27813;43.516;11.890;2022-07-29T20:46:08;21.70;78.90
42145;DHT22;27813;43.516;11.890;2022-07-29T20:50:13;21.80;78.90
42145;DHT22;27813;43.516;11.890;2022-07-29T20:54:20;21.80;78.80
42145;DHT22;27813;43.516;11.890;2022-07-29T20:58:26;21.80;78.80
42145;DHT22;27813;43.516;11.890;2022-07-29T21:02:32;21.80;78.70
42145;DHT22;27813;43.516;11.890;2022-07-29T21:06:37;21.90;78.90
42145;DHT22;27813;43.516;11.890;2022-07-29T21:10:42;22.00;78.80
42145;DHT22;27813;43.516;11.890;2022-07-29T21:14:47;22.20;78.10
42145;DHT22;27813;43.516;11.890;2022-07-29T21:18:53;22.20;77.60
42145;DHT22;27813;43.516;11.890;2022-07-29T21:22:58;22.10;77.60
42145;DHT22;27813;43.516;11.890;2022-07-29T21:27:03;21.90;77.90
42145;DHT22;27813;43.516;11.890;2022-07-29T21:31:27;21.70;78.20
42145;DHT22;27813;43.516;11.890;2022-07-29T21:35:31;21.70;78.40
42145;DHT22;27813;43.516;11.890;2022-07-29T21:39:56;21.60;78.20
42145;DHT22;27813;43.516;11.890;2022-07-29T21:44:01;21.60;78.30
42145;DHT22;27813;43.516;11.890;2022-07-29T21:48:05;21.60;78.40
42145;DHT22;27813;43.516;11.890;2022-07-29T21:52:17;21.50;78.40
42145;DHT22;27813;43.516;11.890;2022-07-29T21:56:23;21.40;78.60
42145;DHT22;27813;43.516;11.890;2022-07-29T22:00:31;21.20;78.90
42145;DHT22;27813;43.516;11.890;2022-07-29T22:04:36;21.10;79.10
42145;DHT22;27813;43.516;11.890;2022-07-29T22:08:44;21.10;79.10
42145;DHT22;27813;43.516;11.890;2022-07-29T22:12:51;21.10;79.10
42145;DHT22;27813;43.516;11.890;2022-07-29T22:16:58;21.20;78.90
42145;DHT22;27813;43.516;11.890;2022-07-29T22:21:03;21.20;78.90
42145;DHT22;27813;43.516;11.890;2022-07-29T22:25:09;21.20;78.90
42145;DHT22;27813;43.516;11.890;2022-07-29T22:29:13;21.20;78.80
42145;DHT22;27813;43.516;11.890;2022-07-29T22:33:21;21.20;78.80
42145;DHT22;27813;43.516;11.890;2022-07-29T22:37:29;21.10;78.80
42145;DHT22;27813;43.516;11.890;2022-07-29T22:41:34;21.10;78.90
42145;DHT22;27813;43.516;11.890;2022-07-29T22:45:38;21.20;78.80
42145;DHT22;27813;43.516;11.890;2022-07-29T22:49:42;21.20;78.80
42145;DHT22;27813;43.516;11.890;2022-07-29T22:53:46;21.20;78.70
42145;DHT22;27813;43.516;11.890;2022-07-29T22:57:50;21.10;78.70
42145;DHT22;27813;43.516;11.890;2022-07-29T23:01:55;21.00;78.90
42145;DHT22;27813;43.516;11.890;2022-07-29T23:05:59;21.00;78.90
42145;DHT22;27813;43.516;11.890;2022-07-29T23:10:07;21.00;79.00
42145;DHT22;27813;43.516;11.890;2022-07-29T23:14:12;21.00;79.00
42145;DHT22;27813;43.516;11.890;2022-07-29T23:18:16;21.00;79.00
42145;DHT22;27813;43.516;11.890;2022-07-29T23:22:20;21.00;79.00
42145;DHT22;27813;43.516;11.890;2022-07-29T23:26:26;20.90;79.10
